sensor_id;sensor_type;location;lat;lon;timestamp;P1;durP1;ratioP1;P2;durP2;ratioP2
32321;SDS011;61553;48.994;8.940;2023-08-06T00:00:06;7.22;;;3.92;;
32321;SDS011;61553;48.994;8.940;2023-08-06T00:02:33;6.45;;;4.07;;
32321;SDS011;61553;48.994;8.940;2023-08-06T00:04:59;8.90;;;4.93;;
32321;SDS011;61553;48.994;8.940;2023-08-06T00:07:24;10.57;;;5.07;;
32321;SDS011;61553;48.994;8.940;2023-08-06T00:09:50;6.50;;;4.32;;
32321;SDS011;61553;48.994;8.940;2023-08-06T00:12:15;8.57;;;4.97;;
32321;SDS011;61553;48.994;8.940;2023-08-06T00:14:41;6.55;;;4.38;;
32321;SDS011;61553;48.994;8.940;2023-08-06T00:17:07;7.18;;;4.03;;
32321;SDS011;61553;48.994;8.940;2023-08-06T00:19:33;7.38;;;4.47;;
32321;SDS011;61553;48.994;8.940;2023-08-06T00:21:59;6.97;;;4.88;;
32321;SDS011;61553;48.994;8.940;2023-08-06T00:24:24;6.65;;;5.15;;
32321;SDS011;61553;48.994;8.940;2023-08-06T00:26:50;7.95;;;5.88;;
32321;SDS011;61553;48.994;8.940;2023-08-06T00:29:15;9.13;;;5.93;;
32321;SDS011;61553;48.994;8.940;2023-08-06T00:31:41;9.77;;;6.03;;
32321;SDS011;61553;48.994;8.940;2023-08-06T00:34:07;8.82;;;6.55;;
32321;SDS011;61553;48.994;8.940;2023-08-06T00:36:32;7.78;;;6.00;;
32321;SDS011;61553;48.994;8.940;2023-08-06T00:38:58;8.43;;;6.43;;
32321;SDS011;61553;48.994;8.940;2023-08-06T00:41:23;10.55;;;6.43;;
32321;SDS011;61553;48.994;8.940;2023-08-06T00:43:49;11.48;;;6.95;;
32321;SDS011;61553;48.994;8.940;2023-08-06T00:46:15;14.13;;;7.65;;
32321;SDS011;61553;48.994;8.940;2023-08-06T00:48:41;9.25;;;5.95;;
32321;SDS011;61553;48.994;8.940;2023-08-06T00:51:07;10.98;;;6.85;;
32321;SDS011;61553;48.994;8.940;2023-08-06T00:53:35;10.15;;;6.28;;
32321;SDS011;61553;48.994;8.940;2023-08-06T00:56:02;9.48;;;5.85;;
32321;SDS011;61553;48.994;8.940;2023-08-06T00:58:28;11.52;;;6.70;;
32321;SDS011;61553;48.994;8.940;2023-08-06T01:00:54;11.48;;;6.35;;
32321;SDS011;61553;48.994;8.940;2023-08-06T01:03:19;8.70;;;5.25;;
32321;SDS011;61553;48.994;8.940;2023-08-06T01:05:45;10.90;;;6.35;;
32321;SDS011;61553;48.994;8.940;2023-08-06T01:10:49;8.27;;;5.18;;
32321;SDS011;61553;48.994;8.940;2023-08-06T01:13:53;7.82;;;5.25;;
32321;SDS011;61553;48.994;8.940;2023-08-06T01:16:15;10.00;;;5.07;;
32321;SDS011;61553;48.994;8.940;2023-08-06T01:18:42;6.85;;;5.10;;
32321;SDS011;61553;48.994;8.940;2023-08-06T01:21:11;11.10;;;6.05;;
32321;SDS011;61553;48.994;8.940;2023-08-06T01:23:44;10.57;;;5.90;;
32321;SDS011;61553;48.994;8.940;2023-08-06T01:31:35;11.65;;;7.70;;
32321;SDS011;61553;48.994;8.940;2023-08-06T01:34:04;8.65;;;6.28;;
32321;SDS011;61553;48.994;8.940;2023-08-06T01:36:32;13.85;;;6.95;;
32321;SDS011;61553;48.994;8.940;2023-08-06T01:38:58;10.45;;;7.80;;
32321;SDS011;61553;48.994;8.940;2023-08-06T01:41:24;9.05;;;5.93;;
32321;SDS011;61553;48.994;8.940;2023-08-06T01:43:50;8.93;;;5.93;;
32321;SDS011;61553;48.994;8.940;2023-08-06T01:46:16;9.15;;;5.57;;
32321;SDS011;61553;48.994;8.940;2023-08-06T01:48:42;10.30;;;6.28;;
32321;SDS011;61553;48.994;8.940;2023-08-06T01:51:08;8.10;;;5.57;;
32321;SDS011;61553;48.994;8.940;2023-08-06T01:53:34;7.80;;;5.65;;
32321;SDS011;61553;48.994;8.940;2023-08-06T01:55:59;7.95;;;5.75;;
32321;SDS011;61553;48.994;8.940;2023-08-06T01:58:25;11.30;;;5.80;;
32321;SDS011;61553;48.994;8.940;2023-08-06T02:00:50;8.23;;;5.72;;
32321;SDS011;61553;48.994;8.940;2023-08-06T02:03:16;10.55;;;5.85;;
32321;SDS011;61553;48.994;8.940;2023-08-06T02:05:42;9.73;;;5.10;;
32321;SDS011;61553;48.994;8.940;2023-08-06T02:08:08;8.32;;;5.63;;
32321;SDS011;61553;48.994;8.940;2023-08-06T02:10:33;9.32;;;5.90;;
32321;SDS011;61553;48.994;8.940;2023-08-06T02:12:59;10.43;;;5.53;;
32321;SDS011;61553;48.994;8.940;2023-08-06T02:15:25;7.72;;;5.68;;
32321;SDS011;61553;48.994;8.940;2023-08-06T02:17:51;8.00;;;5.50;;
32321;SDS011;61553;48.994;8.940;2023-08-06T02:20:16;7.32;;;5.40;;
32321;SDS011;61553;48.994;8.940;2023-08-06T02:22:42;9.48;;;5.38;;
32321;SDS011;61553;48.994;8.940;2023-08-06T02:25:08;9.18;;;4.78;;
32321;SDS011;61553;48.994;8.940;2023-08-06T02:27:33;9.30;;;5.85;;
32321;SDS011;61553;48.994;8.940;2023-08-06T02:29:59;10.38;;;5.28;;
32321;SDS011;61553;48.994;8.940;2023-08-06T02:32:25;11.05;;;5.20;;
32321;SDS011;61553;48.994;8.940;2023-08-06T02:34:50;9.07;;;5.93;;
32321;SDS011;61553;48.994;8.940;2023-08-06T02:37:16;9.15;;;5.95;;
32321;SDS011;61553;48.994;8.940;2023-08-06T02:39:42;8.02;;;5.22;;
32321;SDS011;61553;48.994;8.940;2023-08-06T02:42:08;11.15;;;5.10;;
32321;SDS011;61553;48.994;8.940;2023-08-06T02:44:34;10.68;;;5.38;;
32321;SDS011;61553;48.994;8.940;2023-08-06T02:47:00;8.02;;;4.97;;
32321;SDS011;61553;48.994;8.940;2023-08-06T02:49:26;9.27;;;4.85;;
32321;SDS011;61553;48.994;8.940;2023-08-06T02:51:52;8.55;;;4.88;;
32321;SDS011;61553;48.994;8.940;2023-08-06T02:54:18;11.73;;;4.60;;
32321;SDS011;61553;48.994;8.940;2023-08-06T02:56:44;10.73;;;5.30;;
32321;SDS011;61553;48.994;8.940;2023-08-06T02:59:11;5.78;;;4.32;;
32321;SDS011;61553;48.994;8.940;2023-08-06T03:01:37;8.68;;;4.72;;
32321;SDS011;61553;48.994;8.940;2023-08-06T03:04:03;11.25;;;4.75;;
32321;SDS011;61553;48.994;8.940;2023-08-06T03:06:29;10.20;;;4.45;;
32321;SDS011;61553;48.994;8.940;2023-08-06T03:08:55;7.05;;;4.38;;
32321;SDS011;61553;48.994;8.940;2023-08-06T03:11:20;8.52;;;4.25;;
32321;SDS011;61553;48.994;8.940;2023-08-06T03:13:47;7.50;;;4.80;;
32321;SDS011;61553;48.994;8.940;2023-08-06T03:16:12;7.57;;;4.60;;
32321;SDS011;61553;48.994;8.940;2023-08-06T03:18:38;6.15;;;4.30;;
32321;SDS011;61553;48.994;8.940;2023-08-06T03:21:04;12.45;;;4.97;;
32321;SDS011;61553;48.994;8.940;2023-08-06T03:23:30;8.45;;;4.80;;
32321;SDS011;61553;48.994;8.940;2023-08-06T03:25:56;7.93;;;4.50;;
32321;SDS011;61553;48.994;8.940;2023-08-06T03:28:21;7.43;;;4.38;;
32321;SDS011;61553;48.994;8.940;2023-08-06T03:30:47;7.47;;;4.35;;
32321;SDS011;61553;48.994;8.940;2023-08-06T03:33:23;6.40;;;4.28;;
32321;SDS011;61553;48.994;8.940;2023-08-06T03:35:49;7.88;;;4.90;;
32321;SDS011;61553;48.994;8.940;2023-08-06T03:38:14;8.23;;;4.68;;
32321;SDS011;61553;48.994;8.940;2023-08-06T03:40:40;7.53;;;4.50;;
32321;SDS011;61553;48.994;8.940;2023-08-06T03:43:05;7.85;;;3.70;;
32321;SDS011;61553;48.994;8.940;2023-08-06T03:45:31;8.40;;;4.00;;
32321;SDS011;61553;48.994;8.940;2023-08-06T03:47:56;7.28;;;3.75;;
32321;SDS011;61553;48.994;8.940;2023-08-06T03:50:22;7.25;;;3.20;;
32321;SDS011;61553;48.994;8.940;2023-08-06T03:52:48;7.00;;;2.50;;
32321;SDS011;61553;48.994;8.940;2023-08-06T03:55:14;7.28;;;2.22;;
32321;SDS011;61553;48.994;8.940;2023-08-06T03:57:39;5.10;;;1.85;;
32321;SDS011;61553;48.994;8.940;2023-08-06T04:00:05;5.88;;;2.00;;
32321;SDS011;61553;48.994;8.940;2023-08-06T04:02:32;7.13;;;2.72;;
32321;SDS011;61553;48.994;8.940;2023-08-06T04:04:57;8.65;;;2.20;;
32321;SDS011;61553;48.994;8.940;2023-08-06T04:07:24;4.80;;;1.73;;
32321;SDS011;61553;48.994;8.940;2023-08-06T04:09:53;6.50;;;1.60;;
32321;SDS011;61553;48.994;8.940;2023-08-06T04:12:23;5.68;;;1.63;;
32321;SDS011;61553;48.994;8.940;2023-08-06T04:14:50;5.78;;;1.65;;
32321;SDS011;61553;48.994;8.940;2023-08-06T04:17:16;4.47;;;1.83;;
32321;SDS011;61553;48.994;8.940;2023-08-06T04:19:45;4.80;;;1.85;;
32321;SDS011;61553;48.994;8.940;2023-08-06T04:22:20;3.65;;;1.40;;
32321;SDS011;61553;48.994;8.940;2023-08-06T04:24:46;6.40;;;1.88;;
32321;SDS011;61553;48.994;8.940;2023-08-06T04:27:12;5.38;;;1.73;;
32321;SDS011;61553;48.994;8.940;2023-08-06T04:29:39;6.10;;;1.70;;
32321;SDS011;61553;48.994;8.940;2023-08-06T04:32:05;3.53;;;1.23;;
32321;SDS011;61553;48.994;8.940;2023-08-06T04:34:33;5.15;;;1.60;;
32321;SDS011;61553;48.994;8.940;2023-08-06T04:36:59;4.63;;;1.38;;
32321;SDS011;61553;48.994;8.940;2023-08-06T04:39:25;3.78;;;1.40;;
32321;SDS011;61553;48.994;8.940;2023-08-06T04:41:51;4.28;;;1.20;;
32321;SDS011;61553;48.994;8.940;2023-08-06T04:44:16;5.05;;;1.10;;
32321;SDS011;61553;48.994;8.940;2023-08-06T04:46:42;3.25;;;1.00;;
32321;SDS011;61553;48.994;8.940;2023-08-06T04:49:08;9.77;;;1.38;;
32321;SDS011;61553;48.994;8.940;2023-08-06T04:51:34;4.22;;;1.50;;
32321;SDS011;61553;48.994;8.940;2023-08-06T04:53:59;3.25;;;0.88;;
32321;SDS011;61553;48.994;8.940;2023-08-06T04:56:25;4.32;;;0.98;;
32321;SDS011;61553;48.994;8.940;2023-08-06T04:58:50;6.35;;;1.30;;
32321;SDS011;61553;48.994;8.940;2023-08-06T05:01:16;5.07;;;1.17;;
32321;SDS011;61553;48.994;8.940;2023-08-06T05:03:42;2.05;;;0.88;;
32321;SDS011;61553;48.994;8.940;2023-08-06T05:06:07;5.53;;;1.60;;
32321;SDS011;61553;48.994;8.940;2023-08-06T05:08:33;4.25;;;1.45;;
32321;SDS011;61553;48.994;8.940;2023-08-06T05:10:59;7.95;;;1.30;;
32321;SDS011;61553;48.994;8.940;2023-08-06T05:13:24;7.50;;;2.22;;
32321;SDS011;61553;48.994;8.940;2023-08-06T05:15:50;4.05;;;1.30;;
32321;SDS011;61553;48.994;8.940;2023-08-06T05:18:18;2.50;;;1.13;;
32321;SDS011;61553;48.994;8.940;2023-08-06T05:20:44;5.38;;;1.75;;
32321;SDS011;61553;48.994;8.940;2023-08-06T05:23:10;6.88;;;1.45;;
32321;SDS011;61553;48.994;8.940;2023-08-06T05:25:35;3.90;;;0.85;;
32321;SDS011;61553;48.994;8.940;2023-08-06T05:28:02;3.65;;;1.05;;
32321;SDS011;61553;48.994;8.940;2023-08-06T05:30:28;4.97;;;1.08;;
32321;SDS011;61553;48.994;8.940;2023-08-06T05:32:53;7.38;;;1.50;;
32321;SDS011;61553;48.994;8.940;2023-08-06T05:35:20;3.88;;;0.95;;
32321;SDS011;61553;48.994;8.940;2023-08-06T05:37:46;2.78;;;0.88;;
32321;SDS011;61553;48.994;8.940;2023-08-06T05:40:12;2.75;;;0.88;;
32321;SDS011;61553;48.994;8.940;2023-08-06T05:42:38;4.25;;;1.63;;
32321;SDS011;61553;48.994;8.940;2023-08-06T05:45:04;2.40;;;0.80;;
32321;SDS011;61553;48.994;8.940;2023-08-06T05:47:30;3.35;;;1.20;;
32321;SDS011;61553;48.994;8.940;2023-08-06T05:49:56;5.80;;;1.48;;
32321;SDS011;61553;48.994;8.940;2023-08-06T05:52:21;3.97;;;1.02;;
32321;SDS011;61553;48.994;8.940;2023-08-06T05:54:47;3.78;;;0.90;;
32321;SDS011;61553;48.994;8.940;2023-08-06T05:57:13;2.38;;;0.85;;
32321;SDS011;61553;48.994;8.940;2023-08-06T05:59:40;2.95;;;1.10;;
32321;SDS011;61553;48.994;8.940;2023-08-06T06:02:06;6.05;;;1.10;;
32321;SDS011;61553;48.994;8.940;2023-08-06T06:04:31;2.45;;;1.10;;
32321;SDS011;61553;48.994;8.940;2023-08-06T06:06:57;4.90;;;1.10;;
32321;SDS011;61553;48.994;8.940;2023-08-06T06:09:23;2.58;;;0.90;;
32321;SDS011;61553;48.994;8.940;2023-08-06T06:11:48;3.65;;;0.85;;
32321;SDS011;61553;48.994;8.940;2023-08-06T06:14:15;3.03;;;1.17;;
32321;SDS011;61553;48.994;8.940;2023-08-06T06:16:44;3.22;;;0.85;;
32321;SDS011;61553;48.994;8.940;2023-08-06T06:19:10;5.43;;;0.93;;
32321;SDS011;61553;48.994;8.940;2023-08-06T06:21:36;5.05;;;0.75;;
32321;SDS011;61553;48.994;8.940;2023-08-06T06:24:05;5.63;;;0.70;;
32321;SDS011;61553;48.994;8.940;2023-08-06T06:26:32;4.00;;;0.70;;
32321;SDS011;61553;48.994;8.940;2023-08-06T06:28:58;3.33;;;0.60;;
32321;SDS011;61553;48.994;8.940;2023-08-06T06:31:23;3.05;;;0.73;;
32321;SDS011;61553;48.994;8.940;2023-08-06T06:33:49;1.38;;;0.60;;
32321;SDS011;61553;48.994;8.940;2023-08-06T06:36:15;1.88;;;0.60;;
32321;SDS011;61553;48.994;8.940;2023-08-06T06:38:40;1.92;;;0.45;;
32321;SDS011;61553;48.994;8.940;2023-08-06T06:41:06;2.80;;;0.60;;
32321;SDS011;61553;48.994;8.940;2023-08-06T06:43:32;1.77;;;0.47;;
32321;SDS011;61553;48.994;8.940;2023-08-06T06:45:58;1.33;;;0.60;;
32321;SDS011;61553;48.994;8.940;2023-08-06T06:48:28;2.25;;;0.40;;
32321;SDS011;61553;48.994;8.940;2023-08-06T06:50:55;2.08;;;0.43;;
32321;SDS011;61553;48.994;8.940;2023-08-06T06:53:21;1.48;;;0.40;;
32321;SDS011;61553;48.994;8.940;2023-08-06T06:55:52;1.23;;;0.22;;
32321;SDS011;61553;48.994;8.940;2023-08-06T06:58:28;2.33;;;0.60;;
32321;SDS011;61553;48.994;8.940;2023-08-06T07:00:53;2.55;;;0.47;;
32321;SDS011;61553;48.994;8.940;2023-08-06T07:03:19;3.70;;;0.57;;
32321;SDS011;61553;48.994;8.940;2023-08-06T07:05:45;2.67;;;0.35;;
32321;SDS011;61553;48.994;8.940;2023-08-06T07:08:11;1.35;;;0.40;;
32321;SDS011;61553;48.994;8.940;2023-08-06T07:10:37;1.38;;;0.30;;
32321;SDS011;61553;48.994;8.940;2023-08-06T07:13:03;1.83;;;0.28;;
32321;SDS011;61553;48.994;8.940;2023-08-06T07:15:28;0.52;;;0.20;;
32321;SDS011;61553;48.994;8.940;2023-08-06T07:17:54;1.10;;;0.25;;
32321;SDS011;61553;48.994;8.940;2023-08-06T07:20:20;0.75;;;0.20;;
32321;SDS011;61553;48.994;8.940;2023-08-06T07:22:46;0.30;;;0.20;;
32321;SDS011;61553;48.994;8.940;2023-08-06T07:25:11;1.83;;;0.45;;
32321;SDS011;61553;48.994;8.940;2023-08-06T07:27:37;0.90;;;0.20;;
32321;SDS011;61553;48.994;8.940;2023-08-06T07:30:03;0.32;;;0.17;;
32321;SDS011;61553;48.994;8.940;2023-08-06T07:32:30;0.20;;;0.10;;
32321;SDS011;61553;48.994;8.940;2023-08-06T07:34:56;0.38;;;0.10;;
32321;SDS011;61553;48.994;8.940;2023-08-06T07:37:25;2.40;;;0.30;;
32321;SDS011;61553;48.994;8.940;2023-08-06T07:39:53;0.43;;;0.10;;
32321;SDS011;61553;48.994;8.940;2023-08-06T07:42:19;0.28;;;0.10;;
32321;SDS011;61553;48.994;8.940;2023-08-06T07:44:55;0.98;;;0.20;;
32321;SDS011;61553;48.994;8.940;2023-08-06T07:47:22;0.75;;;0.10;;
32321;SDS011;61553;48.994;8.940;2023-08-06T07:49:48;4.57;;;0.28;;
32321;SDS011;61553;48.994;8.940;2023-08-06T07:52:13;0.20;;;0.10;;
32321;SDS011;61553;48.994;8.940;2023-08-06T07:54:39;2.33;;;0.28;;
32321;SDS011;61553;48.994;8.940;2023-08-06T07:57:05;1.17;;;0.20;;
32321;SDS011;61553;48.994;8.940;2023-08-06T07:59:30;0.50;;;0.10;;
32321;SDS011;61553;48.994;8.940;2023-08-06T08:01:56;1.45;;;0.20;;
32321;SDS011;61553;48.994;8.940;2023-08-06T08:04:22;0.65;;;0.20;;
32321;SDS011;61553;48.994;8.940;2023-08-06T08:06:48;0.85;;;0.30;;
32321;SDS011;61553;48.994;8.940;2023-08-06T08:09:14;0.20;;;0.10;;
32321;SDS011;61553;48.994;8.940;2023-08-06T08:11:40;0.75;;;0.10;;
32321;SDS011;61553;48.994;8.940;2023-08-06T08:14:07;0.43;;;0.08;;
32321;SDS011;61553;48.994;8.940;2023-08-06T08:16:32;2.33;;;0.80;;
32321;SDS011;61553;48.994;8.940;2023-08-06T08:18:58;0.80;;;0.13;;
32321;SDS011;61553;48.994;8.940;2023-08-06T08:21:23;0.43;;;0.10;;
32321;SDS011;61553;48.994;8.940;2023-08-06T08:23:50;1.00;;;0.50;;
32321;SDS011;61553;48.994;8.940;2023-08-06T08:26:15;0.40;;;0.10;;
32321;SDS011;61553;48.994;8.940;2023-08-06T08:28:41;2.45;;;0.20;;
32321;SDS011;61553;48.994;8.940;2023-08-06T08:31:10;0.68;;;0.10;;
32321;SDS011;61553;48.994;8.940;2023-08-06T08:33:39;2.13;;;0.08;;
32321;SDS011;61553;48.994;8.940;2023-08-06T08:36:05;0.98;;;0.05;;
32321;SDS011;61553;48.994;8.940;2023-08-06T08:38:30;4.38;;;0.17;;
32321;SDS011;61553;48.994;8.940;2023-08-06T08:40:56;0.20;;;0.10;;
32321;SDS011;61553;48.994;8.940;2023-08-06T08:43:22;1.42;;;0.38;;
32321;SDS011;61553;48.994;8.940;2023-08-06T08:45:51;0.85;;;0.17;;
32321;SDS011;61553;48.994;8.940;2023-08-06T08:48:20;0.93;;;0.00;;
32321;SDS011;61553;48.994;8.940;2023-08-06T08:50:47;0.10;;;0.10;;
32321;SDS011;61553;48.994;8.940;2023-08-06T08:53:14;0.25;;;0.00;;
32321;SDS011;61553;48.994;8.940;2023-08-06T08:55:40;0.60;;;0.20;;
32321;SDS011;61553;48.994;8.940;2023-08-06T08:58:08;0.35;;;0.08;;
32321;SDS011;61553;48.994;8.940;2023-08-06T09:00:34;0.00;;;0.00;;
32321;SDS011;61553;48.994;8.940;2023-08-06T09:03:00;0.10;;;0.10;;
32321;SDS011;61553;48.994;8.940;2023-08-06T09:05:30;0.13;;;0.00;;
32321;SDS011;61553;48.994;8.940;2023-08-06T09:08:00;1.75;;;0.10;;
32321;SDS011;61553;48.994;8.940;2023-08-06T09:10:28;0.10;;;0.00;;
32321;SDS011;61553;48.994;8.940;2023-08-06T09:12:53;0.25;;;0.10;;
32321;SDS011;61553;48.994;8.940;2023-08-06T09:15:24;0.88;;;0.20;;
32321;SDS011;61553;48.994;8.940;2023-08-06T09:17:50;0.60;;;0.10;;
32321;SDS011;61553;48.994;8.940;2023-08-06T09:20:17;0.10;;;0.00;;
32321;SDS011;61553;48.994;8.940;2023-08-06T09:22:42;0.32;;;0.10;;
32321;SDS011;61553;48.994;8.940;2023-08-06T09:25:09;0.50;;;0.10;;
32321;SDS011;61553;48.994;8.940;2023-08-06T09:27:35;0.60;;;0.10;;
32321;SDS011;61553;48.994;8.940;2023-08-06T09:30:02;0.20;;;0.08;;
32321;SDS011;61553;48.994;8.940;2023-08-06T09:32:44;0.35;;;0.15;;
32321;SDS011;61553;48.994;8.940;2023-08-06T09:35:17;0.10;;;0.10;;
32321;SDS011;61553;48.994;8.940;2023-08-06T09:37:44;0.57;;;0.10;;
32321;SDS011;61553;48.994;8.940;2023-08-06T09:40:31;0.40;;;0.13;;
32321;SDS011;61553;48.994;8.940;2023-08-06T09:42:58;0.20;;;0.00;;
32321;SDS011;61553;48.994;8.940;2023-08-06T09:45:33;0.08;;;0.08;;
32321;SDS011;61553;48.994;8.940;2023-08-06T09:48:07;0.25;;;0.00;;
32321;SDS011;61553;48.994;8.940;2023-08-06T09:50:35;1.33;;;0.20;;
32321;SDS011;61553;48.994;8.940;2023-08-06T09:53:03;0.80;;;0.30;;
32321;SDS011;61553;48.994;8.940;2023-08-06T09:55:30;0.43;;;0.10;;
32321;SDS011;61553;48.994;8.940;2023-08-06T09:57:58;0.43;;;0.20;;
32321;SDS011;61553;48.994;8.940;2023-08-06T10:00:25;0.40;;;0.17;;
32321;SDS011;61553;48.994;8.940;2023-08-06T10:02:52;1.27;;;0.30;;
32321;SDS011;61553;48.994;8.940;2023-08-06T10:05:20;0.25;;;0.10;;
32321;SDS011;61553;48.994;8.940;2023-08-06T10:07:47;0.77;;;0.10;;
32321;SDS011;61553;48.994;8.940;2023-08-06T10:10:15;0.82;;;0.20;;
32321;SDS011;61553;48.994;8.940;2023-08-06T10:12:43;0.98;;;0.30;;
32321;SDS011;61553;48.994;8.940;2023-08-06T10:15:16;1.05;;;0.20;;
32321;SDS011;61553;48.994;8.940;2023-08-06T10:17:45;1.10;;;0.20;;
32321;SDS011;61553;48.994;8.940;2023-08-06T10:20:13;1.30;;;0.28;;
32321;SDS011;61553;48.994;8.940;2023-08-06T10:22:45;0.38;;;0.10;;
32321;SDS011;61553;48.994;8.940;2023-08-06T10:25:16;0.55;;;0.10;;
32321;SDS011;61553;48.994;8.940;2023-08-06T10:30:24;0.75;;;0.20;;
32321;SDS011;61553;48.994;8.940;2023-08-06T10:32:54;0.80;;;0.20;;
32321;SDS011;61553;48.994;8.940;2023-08-06T10:35:33;0.98;;;0.30;;
32321;SDS011;61553;48.994;8.940;2023-08-06T10:40:36;1.15;;;0.30;;
32321;SDS011;61553;48.994;8.940;2023-08-06T10:43:04;0.20;;;0.13;;
32321;SDS011;61553;48.994;8.940;2023-08-06T10:45:36;0.60;;;0.25;;
32321;SDS011;61553;48.994;8.940;2023-08-06T10:48:03;0.68;;;0.30;;
32321;SDS011;61553;48.994;8.940;2023-08-06T10:50:29;1.15;;;0.40;;
32321;SDS011;61553;48.994;8.940;2023-08-06T10:52:56;1.17;;;0.43;;
32321;SDS011;61553;48.994;8.940;2023-08-06T10:55:28;5.90;;;0.70;;
32321;SDS011;61553;48.994;8.940;2023-08-06T10:57:55;1.38;;;0.40;;
32321;SDS011;61553;48.994;8.940;2023-08-06T11:00:23;2.17;;;0.90;;
32321;SDS011;61553;48.994;8.940;2023-08-06T11:02:49;2.05;;;0.90;;
32321;SDS011;61553;48.994;8.940;2023-08-06T11:05:16;2.33;;;1.00;;
32321;SDS011;61553;48.994;8.940;2023-08-06T11:07:42;1.95;;;0.70;;
32321;SDS011;61553;48.994;8.940;2023-08-06T11:10:09;2.03;;;0.80;;
32321;SDS011;61553;48.994;8.940;2023-08-06T11:12:37;3.30;;;1.00;;
32321;SDS011;61553;48.994;8.940;2023-08-06T11:15:03;2.60;;;0.90;;
32321;SDS011;61553;48.994;8.940;2023-08-06T11:17:30;1.65;;;0.88;;
32321;SDS011;61553;48.994;8.940;2023-08-06T11:19:58;3.50;;;1.20;;
32321;SDS011;61553;48.994;8.940;2023-08-06T11:22:25;3.97;;;0.80;;
32321;SDS011;61553;48.994;8.940;2023-08-06T11:24:51;2.00;;;1.08;;
32321;SDS011;61553;48.994;8.940;2023-08-06T11:27:18;2.58;;;1.00;;
32321;SDS011;61553;48.994;8.940;2023-08-06T11:29:44;3.03;;;1.30;;
32321;SDS011;61553;48.994;8.940;2023-08-06T11:32:10;2.97;;;1.20;;
32321;SDS011;61553;48.994;8.940;2023-08-06T11:34:36;2.75;;;1.17;;
32321;SDS011;61553;48.994;8.940;2023-08-06T11:37:03;3.53;;;1.30;;
32321;SDS011;61553;48.994;8.940;2023-08-06T11:39:31;2.97;;;1.10;;
32321;SDS011;61553;48.994;8.940;2023-08-06T11:42:04;4.15;;;1.42;;
32321;SDS011;61553;48.994;8.940;2023-08-06T11:44:31;2.95;;;1.33;;
32321;SDS011;61553;48.994;8.940;2023-08-06T11:47:00;3.25;;;1.45;;
32321;SDS011;61553;48.994;8.940;2023-08-06T11:52:10;3.83;;;2.05;;
32321;SDS011;61553;48.994;8.940;2023-08-06T11:54:41;4.53;;;1.60;;
32321;SDS011;61553;48.994;8.940;2023-08-06T11:57:07;5.28;;;1.80;;
32321;SDS011;61553;48.994;8.940;2023-08-06T11:59:33;4.65;;;1.92;;
32321;SDS011;61553;48.994;8.940;2023-08-06T12:02:03;5.97;;;1.95;;
32321;SDS011;61553;48.994;8.940;2023-08-06T12:05:18;5.35;;;1.90;;
32321;SDS011;61553;48.994;8.940;2023-08-06T12:07:28;6.75;;;1.95;;
32321;SDS011;61553;48.994;8.940;2023-08-06T12:09:55;4.25;;;1.70;;
32321;SDS011;61553;48.994;8.940;2023-08-06T12:12:21;5.70;;;2.50;;
32321;SDS011;61553;48.994;8.940;2023-08-06T12:14:47;5.70;;;2.08;;
32321;SDS011;61553;48.994;8.940;2023-08-06T12:17:12;7.68;;;2.40;;
32321;SDS011;61553;48.994;8.940;2023-08-06T12:19:38;4.72;;;2.53;;
32321;SDS011;61553;48.994;8.940;2023-08-06T12:22:04;4.50;;;2.03;;
32321;SDS011;61553;48.994;8.940;2023-08-06T12:24:29;4.35;;;2.20;;
32321;SDS011;61553;48.994;8.940;2023-08-06T12:26:57;6.22;;;2.38;;
32321;SDS011;61553;48.994;8.940;2023-08-06T12:29:23;4.40;;;2.10;;
32321;SDS011;61553;48.994;8.940;2023-08-06T12:31:50;7.30;;;2.60;;
32321;SDS011;61553;48.994;8.940;2023-08-06T12:34:15;4.75;;;1.90;;
32321;SDS011;61553;48.994;8.940;2023-08-06T12:36:41;4.55;;;2.08;;
32321;SDS011;61553;48.994;8.940;2023-08-06T12:39:07;4.38;;;1.98;;
32321;SDS011;61553;48.994;8.940;2023-08-06T12:41:33;6.68;;;2.15;;
32321;SDS011;61553;48.994;8.940;2023-08-06T12:43:58;6.32;;;2.17;;
32321;SDS011;61553;48.994;8.940;2023-08-06T12:46:24;4.07;;;1.63;;
32321;SDS011;61553;48.994;8.940;2023-08-06T12:48:49;4.72;;;2.50;;
32321;SDS011;61553;48.994;8.940;2023-08-06T12:51:15;5.55;;;1.85;;
32321;SDS011;61553;48.994;8.940;2023-08-06T12:53:41;4.43;;;1.52;;
32321;SDS011;61553;48.994;8.940;2023-08-06T12:56:07;4.03;;;1.48;;
32321;SDS011;61553;48.994;8.940;2023-08-06T12:58:32;4.63;;;1.85;;
32321;SDS011;61553;48.994;8.940;2023-08-06T13:00:58;3.80;;;1.50;;
32321;SDS011;61553;48.994;8.940;2023-08-06T13:03:24;7.72;;;1.63;;
32321;SDS011;61553;48.994;8.940;2023-08-06T13:05:49;5.60;;;1.85;;
32321;SDS011;61553;48.994;8.940;2023-08-06T13:08:15;5.38;;;1.60;;
32321;SDS011;61553;48.994;8.940;2023-08-06T13:10:42;3.47;;;1.48;;
32321;SDS011;61553;48.994;8.940;2023-08-06T13:13:07;4.80;;;2.03;;
32321;SDS011;61553;48.994;8.940;2023-08-06T13:15:35;4.45;;;1.55;;
32321;SDS011;61553;48.994;8.940;2023-08-06T13:18:01;3.38;;;1.67;;
32321;SDS011;61553;48.994;8.940;2023-08-06T13:20:26;6.70;;;1.60;;
32321;SDS011;61553;48.994;8.940;2023-08-06T13:22:52;3.17;;;1.50;;
32321;SDS011;61553;48.994;8.940;2023-08-06T13:25:19;3.38;;;1.35;;
32321;SDS011;61553;48.994;8.940;2023-08-06T13:27:44;2.53;;;1.15;;
32321;SDS011;61553;48.994;8.940;2023-08-06T13:30:11;3.60;;;1.27;;
32321;SDS011;61553;48.994;8.940;2023-08-06T13:32:36;3.80;;;1.30;;
32321;SDS011;61553;48.994;8.940;2023-08-06T13:35:03;4.82;;;1.00;;
32321;SDS011;61553;48.994;8.940;2023-08-06T13:37:29;3.80;;;1.23;;
32321;SDS011;61553;48.994;8.940;2023-08-06T13:39:55;1.88;;;0.80;;
32321;SDS011;61553;48.994;8.940;2023-08-06T13:42:21;1.92;;;0.80;;
32321;SDS011;61553;48.994;8.940;2023-08-06T13:44:47;2.67;;;0.98;;
32321;SDS011;61553;48.994;8.940;2023-08-06T13:47:13;5.35;;;1.13;;
32321;SDS011;61553;48.994;8.940;2023-08-06T13:49:38;3.13;;;0.80;;
32321;SDS011;61553;48.994;8.940;2023-08-06T13:52:04;1.85;;;0.77;;
32321;SDS011;61553;48.994;8.940;2023-08-06T13:54:30;1.42;;;0.90;;
32321;SDS011;61553;48.994;8.940;2023-08-06T13:56:56;1.65;;;0.95;;
32321;SDS011;61553;48.994;8.940;2023-08-06T13:59:21;1.20;;;0.60;;
32321;SDS011;61553;48.994;8.940;2023-08-06T14:01:49;1.85;;;0.75;;
32321;SDS011;61553;48.994;8.940;2023-08-06T14:04:15;1.58;;;0.80;;
32321;SDS011;61553;48.994;8.940;2023-08-06T14:06:41;2.92;;;1.08;;
32321;SDS011;61553;48.994;8.940;2023-08-06T14:09:07;3.13;;;0.90;;
32321;SDS011;61553;48.994;8.940;2023-08-06T14:11:33;2.97;;;1.00;;
32321;SDS011;61553;48.994;8.940;2023-08-06T14:13:59;1.70;;;1.00;;
32321;SDS011;61553;48.994;8.940;2023-08-06T14:16:25;2.45;;;0.88;;
32321;SDS011;61553;48.994;8.940;2023-08-06T14:18:51;1.23;;;0.73;;
32321;SDS011;61553;48.994;8.940;2023-08-06T14:21:16;2.10;;;0.70;;
32321;SDS011;61553;48.994;8.940;2023-08-06T14:23:42;3.85;;;0.60;;
32321;SDS011;61553;48.994;8.940;2023-08-06T14:26:08;4.90;;;1.17;;
32321;SDS011;61553;48.994;8.940;2023-08-06T14:28:35;4.75;;;1.10;;
32321;SDS011;61553;48.994;8.940;2023-08-06T14:31:01;4.03;;;1.10;;
32321;SDS011;61553;48.994;8.940;2023-08-06T14:33:27;4.10;;;1.27;;
32321;SDS011;61553;48.994;8.940;2023-08-06T14:35:52;2.85;;;1.05;;
32321;SDS011;61553;48.994;8.940;2023-08-06T14:38:18;1.50;;;0.80;;
32321;SDS011;61553;48.994;8.940;2023-08-06T14:40:44;3.05;;;1.10;;
32321;SDS011;61553;48.994;8.940;2023-08-06T14:43:10;2.45;;;0.90;;
32321;SDS011;61553;48.994;8.940;2023-08-06T14:45:39;3.72;;;1.33;;
32321;SDS011;61553;48.994;8.940;2023-08-06T14:48:04;5.18;;;1.13;;
32321;SDS011;61553;48.994;8.940;2023-08-06T14:50:31;2.35;;;1.05;;
32321;SDS011;61553;48.994;8.940;2023-08-06T14:52:57;3.30;;;1.17;;
32321;SDS011;61553;48.994;8.940;2023-08-06T14:55:25;2.13;;;1.00;;
32321;SDS011;61553;48.994;8.940;2023-08-06T14:57:52;1.85;;;0.85;;